CheckWX is a tool to help pilots better visualize weather data.  It is not intended as a substitute for an official pre-flight weather briefing.

21:20:45 UTC

KCNY TAF
Canyonlands Field Airport
Moab, Utah, USA
KCNY 161720Z 1618/1718 28012G18KT P6SM FEW120 SCT250 FM161900 28017G26KT P6SM VCTS SCT080CB BKN250 FM170400 26006KT P6SM SCT100 BKN180 FM171500 VRB04KT P6SM FEW070 SCT120

Jun-16@
18:00 UTC

Jun-16 @ 18:00 UTC

Jun-16@
19:00 UTC

Jun-16 @ 19:00 UTC

KCNY 161720Z 1618/1718 28012G18KT P6SM FEW120 SCT250

Expired

Wind
  • 280° at 12 KTS
  • {Gusting to 18 KTS
Cloud Levels
  • Few at 12,000' AGL
  • Scattered at 25,000' AGL

Jun-16@
19:00 UTC

Jun-16 @ 19:00 UTC

Jun-17@
04:00 UTC

Jun-17 @ 04:00 UTC

FM161900 28017G26KT P6SM VCTS SCT080CB BKN250

From

From Standard forecast or significant change

Wind
  • 280° at 17 KTS
  • {Gusting to 26 KTS
Conditions
Area Thunderstorm
Cloud Levels
  • Scattered at 8,000' AGL
  • Broken at 25,000' AGL

Jun-17@
04:00 UTC

Jun-17 @ 04:00 UTC

Jun-17@
15:00 UTC

Jun-17 @ 15:00 UTC

FM170400 26006KT P6SM SCT100 BKN180

From

From Standard forecast or significant change

Wind
  • 260° at 6 KTS
Cloud Levels
  • Scattered at 10,000' AGL
  • Broken at 18,000' AGL

Jun-17@
15:00 UTC

Jun-17 @ 15:00 UTC

Jun-17@
18:00 UTC

Jun-17 @ 18:00 UTC

FM171500 VRB04KT P6SM FEW070 SCT120

From

From Standard forecast or significant change

Wind
  • Variable at 4 KTS
Cloud Levels
  • Few at 7,000' AGL
  • Scattered at 12,000' AGL